Time;durP1;ratioP1;P1;durP2;ratioP2;P2;SDS_P1;SDS_P2;PMS_P1;PMS_P2;Temp;Humidity;BMP_temperature;BMP_pressure;BME280_temperature;BME280_humidity;BME280_pressure;Samples;Min_cycle;Max_cycle;Signal;HPM_P1;HPM_P2
2023/05/22 00:00:47;;;;;;;6.93;3.27;;;19.50;99.90;;;;;;4991591;28;20541;-52
2023/05/22 00:03:14;;;;;;;5.63;3.43;;;19.40;99.90;;;;;;4992372;28;20502;-51
2023/05/22 00:05:40;;;;;;;8.23;3.53;;;19.30;99.90;;;;;;4991344;28;21002;-51
2023/05/22 00:08:10;;;;;;;11.20;3.70;;;19.30;99.90;;;;;;4993252;28;21066;-52
2023/05/22 00:10:37;;;;;;;5.70;3.30;;;19.30;99.90;;;;;;4988961;28;20463;-53
2023/05/22 00:13:03;;;;;;;7.53;3.70;;;19.20;99.90;;;;;;4991109;28;20543;-53
2023/05/22 00:15:30;;;;;;;7.80;3.67;;;19.20;99.90;;;;;;4991167;28;20487;-53
2023/05/22 00:17:57;;;;;;;4.87;3.20;;;19.20;99.90;;;;;;4991286;28;20512;-51
2023/05/22 00:20:25;;;;;;;3.80;3.50;;;19.10;99.90;;;;;;4992343;28;20445;-53
2023/05/22 00:22:52;;;;;;;8.13;3.17;;;19.00;99.90;;;;;;4990783;28;20467;-52
2023/05/22 00:25:20;;;;;;;7.30;3.10;;;19.00;99.90;;;;;;4994737;28;20495;-51
2023/05/22 00:27:47;;;;;;;16.53;4.30;;;19.00;99.90;;;;;;4987668;28;20569;-53
2023/05/22 00:30:14;;;;;;;5.53;3.30;;;18.90;99.90;;;;;;4992403;28;20544;-52
2023/05/22 00:32:40;;;;;;;3.40;3.10;;;18.90;99.90;;;;;;4992919;28;20560;-53
2023/05/22 00:35:08;;;;;;;3.47;3.17;;;18.80;99.90;;;;;;4993021;28;20461;-52
2023/05/22 00:37:35;;;;;;;3.50;3.20;;;18.80;99.90;;;;;;4985416;28;20513;-53
2023/05/22 00:40:02;;;;;;;6.00;3.40;;;18.80;99.90;;;;;;4990487;28;20555;-53
2023/05/22 00:42:30;;;;;;;3.30;3.00;;;18.70;99.90;;;;;;4991656;28;20882;-52
2023/05/22 00:44:56;;;;;;;3.93;3.60;;;18.70;99.90;;;;;;4993426;28;20547;-53
2023/05/22 00:47:23;;;;;;;10.93;2.80;;;18.70;99.90;;;;;;4992920;28;20583;-51
2023/05/22 00:49:50;;;;;;;4.27;2.93;;;18.60;99.90;;;;;;4992487;28;20580;-53
2023/05/22 00:52:16;;;;;;;4.83;3.57;;;18.60;99.90;;;;;;4994677;28;20473;-51
2023/05/22 00:54:43;;;;;;;3.23;2.93;;;18.50;99.90;;;;;;4991507;28;20452;-50
2023/05/22 00:57:10;;;;;;;3.30;3.10;;;18.50;99.90;;;;;;4991959;28;20937;-53
2023/05/22 00:59:38;;;;;;;3.43;3.13;;;18.40;99.90;;;;;;4992876;28;20568;-53
2023/05/22 01:02:05;;;;;;;3.43;2.90;;;18.40;99.90;;;;;;4983990;28;20507;-51
2023/05/22 01:04:32;;;;;;;3.17;2.97;;;18.30;99.90;;;;;;4993396;28;21006;-51
2023/05/22 01:07:01;;;;;;;3.30;3.10;;;18.30;99.90;;;;;;4993565;28;20694;-53
2023/05/22 01:09:28;;;;;;;3.03;2.80;;;18.20;99.90;;;;;;4990069;28;20581;-53
2023/05/22 01:12:01;;;;;;;3.57;3.27;;;18.10;99.90;;;;;;4993593;28;20560;-51
2023/05/22 01:14:36;;;;;;;5.17;3.10;;;18.10;99.90;;;;;;4998618;28;20457;-53
2023/05/22 01:17:12;;;;;;;11.83;4.30;;;18.00;99.90;;;;;;4994702;28;20496;-51
2023/05/22 01:20:05;;;;;;;4.93;3.40;;;17.90;99.90;;;;;;4994187;28;20547;-51
2023/05/22 01:22:57;;;;;;;4.37;3.50;;;17.90;99.90;;;;;;4993923;28;20464;-51
2023/05/22 01:25:44;;;;;;;3.43;3.13;;;17.80;99.90;;;;;;4986814;28;20466;-52
2023/05/22 01:28:24;;;;;;;4.17;2.97;;;17.70;99.90;;;;;;4989248;28;20492;-53
2023/05/22 01:30:59;;;;;;;3.43;3.23;;;17.70;99.90;;;;;;4993685;28;20559;-53
2023/05/22 01:33:28;;;;;;;3.53;3.30;;;17.60;99.90;;;;;;4994262;28;20758;-51
2023/05/22 01:35:59;;;;;;;5.40;3.70;;;17.60;99.90;;;;;;4993709;28;20556;-52
2023/05/22 01:38:26;;;;;;;3.50;3.20;;;17.60;99.90;;;;;;4995831;28;20516;-52
2023/05/22 01:40:54;;;;;;;3.50;3.30;;;17.50;99.90;;;;;;4992618;28;21018;-53
2023/05/22 01:43:21;;;;;;;4.47;3.00;;;17.40;99.90;;;;;;4992021;28;20534;-53
2023/05/22 01:45:47;;;;;;;4.70;3.33;;;17.50;99.90;;;;;;4988290;28;21061;-51
2023/05/22 01:48:15;;;;;;;7.27;3.67;;;17.40;99.90;;;;;;4995636;28;20527;-52
2023/05/22 01:50:44;;;;;;;8.47;4.00;;;17.40;99.90;;;;;;4993092;28;20472;-52
2023/05/22 01:53:15;;;;;;;3.20;3.00;;;17.30;99.90;;;;;;4995331;28;20604;-54
2023/05/22 01:55:46;;;;;;;7.60;3.27;;;17.30;99.90;;;;;;4987263;28;20946;-53
2023/05/22 01:58:32;;;;;;;7.57;3.27;;;17.30;99.90;;;;;;4992590;28;20477;-52
2023/05/22 02:01:00;;;;;;;4.83;3.00;;;17.20;99.90;;;;;;4991623;28;21024;-52
2023/05/22 02:03:31;;;;;;;4.30;3.17;;;17.20;99.90;;;;;;4994233;28;20484;-53
2023/05/22 02:06:01;;;;;;;4.33;3.10;;;17.20;99.90;;;;;;4993657;28;20507;-53
2023/05/22 02:08:29;;;;;;;8.03;3.70;;;17.10;99.90;;;;;;4987459;28;20520;-54
2023/05/22 02:10:57;;;;;;;8.10;3.07;;;17.00;99.90;;;;;;4992721;28;20900;-52
2023/05/22 02:13:24;;;;;;;4.77;3.60;;;17.00;99.90;;;;;;4991096;28;20484;-51
2023/05/22 02:15:51;;;;;;;5.23;3.33;;;16.90;99.90;;;;;;4995055;28;20484;-53
2023/05/22 02:18:18;;;;;;;7.60;3.27;;;16.90;99.90;;;;;;4984871;28;20519;-52
2023/05/22 02:20:47;;;;;;;4.17;3.70;;;16.80;99.90;;;;;;4993170;28;20495;-52
2023/05/22 02:23:13;;;;;;;5.00;3.40;;;16.80;99.90;;;;;;4993910;28;20484;-52
2023/05/22 02:25:40;;;;;;;17.20;4.20;;;16.70;99.90;;;;;;4992247;28;20480;-51
2023/05/22 02:28:06;;;;;;;3.63;3.43;;;16.70;99.90;;;;;;4988449;28;20531;-52
2023/05/22 02:30:33;;;;;;;3.53;3.30;;;16.60;99.90;;;;;;4987494;28;20560;-53
2023/05/22 02:32:59;;;;;;;5.20;3.67;;;16.50;99.90;;;;;;4994145;28;20547;-53
2023/05/22 02:35:26;;;;;;;4.93;4.47;;;16.50;99.90;;;;;;4990417;28;20563;-52
2023/05/22 02:37:54;;;;;;;3.77;3.47;;;16.40;99.90;;;;;;4995257;28;20477;-52
2023/05/22 02:40:20;;;;;;;7.07;3.83;;;16.30;99.90;;;;;;4993223;28;20480;-52
2023/05/22 02:42:47;;;;;;;9.90;4.03;;;16.20;99.90;;;;;;4993619;28;20485;-53
2023/05/22 02:45:13;;;;;;;4.13;3.73;;;16.20;99.90;;;;;;4993493;28;20547;-52
2023/05/22 02:47:40;;;;;;;4.20;3.20;;;16.10;99.90;;;;;;4991231;28;20515;-53
2023/05/22 02:50:07;;;;;;;4.10;3.80;;;16.00;99.90;;;;;;4993713;28;20485;-53
2023/05/22 02:52:35;;;;;;;4.00;3.47;;;16.00;99.90;;;;;;4993768;28;20465;-53
2023/05/22 02:55:04;;;;;;;7.20;3.83;;;15.90;99.90;;;;;;4987766;28;20453;-53
2023/05/22 02:57:30;;;;;;;5.13;3.67;;;15.80;99.90;;;;;;4992779;28;20485;-52
2023/05/22 02:59:58;;;;;;;5.50;3.97;;;15.80;99.90;;;;;;4992264;28;20447;-52
2023/05/22 03:02:27;;;;;;;3.90;3.50;;;15.70;99.90;;;;;;4994665;28;20472;-51
2023/05/22 03:04:53;;;;;;;4.97;3.73;;;15.60;99.90;;;;;;4992111;28;20453;-52
2023/05/22 03:07:20;;;;;;;3.87;3.60;;;15.50;99.90;;;;;;4998868;28;20511;-51
2023/05/22 03:09:46;;;;;;;11.63;3.90;;;15.50;99.90;;;;;;4991644;28;20480;-51
2023/05/22 03:12:14;;;;;;;3.23;3.03;;;15.50;99.90;;;;;;4993107;28;20477;-52
2023/05/22 03:14:41;;;;;;;3.67;3.40;;;15.50;99.90;;;;;;4992032;28;20966;-52
2023/05/22 03:17:07;;;;;;;3.50;3.20;;;15.40;99.90;;;;;;4989757;28;20504;-52
2023/05/22 03:19:34;;;;;;;4.73;4.33;;;15.40;99.90;;;;;;4990078;28;20515;-52
2023/05/22 03:22:00;;;;;;;6.20;4.10;;;15.30;99.90;;;;;;4988425;28;20556;-52
2023/05/22 03:24:27;;;;;;;10.80;3.37;;;15.30;99.90;;;;;;4989220;28;20546;-52
2023/05/22 03:26:53;;;;;;;4.10;3.47;;;15.30;99.90;;;;;;4986783;28;21878;-52
2023/05/22 03:29:21;;;;;;;10.37;3.80;;;15.20;99.90;;;;;;4992828;28;20571;-52
2023/05/22 03:31:48;;;;;;;6.43;3.90;;;15.20;99.90;;;;;;4989955;28;21001;-52
2023/05/22 03:34:15;;;;;;;5.10;4.17;;;15.20;99.90;;;;;;5001089;28;20592;-52
2023/05/22 03:36:42;;;;;;;4.30;3.70;;;15.20;99.90;;;;;;4986225;28;20508;-51
2023/05/22 03:39:08;;;;;;;4.20;3.60;;;15.20;99.90;;;;;;4990523;28;20967;-52
2023/05/22 03:41:35;;;;;;;4.10;3.57;;;15.10;99.90;;;;;;4991910;28;20551;-51
2023/05/22 03:44:03;;;;;;;4.57;4.20;;;15.10;99.90;;;;;;4990014;28;20547;-52
2023/05/22 03:46:31;;;;;;;8.53;4.13;;;15.10;99.90;;;;;;4986666;28;20523;-53
2023/05/22 03:48:58;;;;;;;15.77;4.30;;;15.10;99.90;;;;;;4995386;28;20523;-53
2023/05/22 03:51:24;;;;;;;7.10;4.60;;;15.10;99.90;;;;;;4998066;28;20488;-51
2023/05/22 03:53:51;;;;;;;8.07;4.23;;;15.20;99.90;;;;;;4989182;28;21039;-52
2023/05/22 03:56:17;;;;;;;4.57;3.90;;;15.20;99.90;;;;;;4989066;28;20550;-53
2023/05/22 03:58:44;;;;;;;12.47;4.60;;;15.20;99.90;;;;;;4991774;28;20579;-52
2023/05/22 04:01:12;;;;;;;5.20;4.13;;;15.20;99.90;;;;;;4995176;28;21049;-52
2023/05/22 04:03:40;;;;;;;8.60;4.50;;;15.20;99.90;;;;;;4991617;28;20472;-53
2023/05/22 04:06:07;;;;;;;16.83;4.57;;;15.30;99.90;;;;;;4984103;28;20484;-52
2023/05/22 04:08:34;;;;;;;4.97;3.57;;;15.30;99.90;;;;;;4987517;28;20543;-53
2023/05/22 04:11:01;;;;;;;7.03;4.53;;;15.30;99.90;;;;;;4991445;28;20449;-52
2023/05/22 04:13:29;;;;;;;5.77;3.93;;;15.30;99.90;;;;;;4989873;28;20972;-52
2023/05/22 04:15:56;;;;;;;5.47;3.83;;;15.40;99.90;;;;;;4991464;28;20511;-56
2023/05/22 04:18:23;;;;;;;12.83;3.50;;;15.40;99.90;;;;;;4994420;28;20477;-51
2023/05/22 04:20:51;;;;;;;17.40;4.47;;;15.40;99.90;;;;;;4994067;28;20489;-52
2023/05/22 04:23:17;;;;;;;5.30;4.60;;;15.40;99.90;;;;;;4996011;28;20954;-51
2023/05/22 04:25:46;;;;;;;10.93;4.07;;;15.50;99.90;;;;;;4995812;28;20891;-51
2023/05/22 04:28:16;;;;;;;5.03;3.80;;;15.50;99.90;;;;;;4994284;28;20579;-55
2023/05/22 04:30:43;;;;;;;5.73;3.60;;;15.50;99.90;;;;;;4994049;28;20464;-55
2023/05/22 04:33:09;;;;;;;8.63;4.20;;;15.60;99.90;;;;;;4992867;28;21410;-55
2023/05/22 04:35:36;;;;;;;6.67;3.90;;;15.60;99.90;;;;;;4996744;28;20453;-54
2023/05/22 04:38:05;;;;;;;9.83;3.93;;;15.70;99.90;;;;;;4989828;28;20688;-54
2023/05/22 04:40:32;;;;;;;10.40;3.40;;;15.70;99.90;;;;;;4995666;28;20464;-53
2023/05/22 04:42:59;;;;;;;7.80;4.40;;;15.80;99.90;;;;;;4995494;28;20475;-54
2023/05/22 04:45:27;;;;;;;6.27;4.17;;;15.80;99.90;;;;;;4993270;28;20470;-54
2023/05/22 04:47:54;;;;;;;9.40;4.40;;;15.80;99.90;;;;;;4993569;28;20484;-53
2023/05/22 04:50:21;;;;;;;3.63;3.33;;;15.90;99.90;;;;;;4993344;28;20488;-56
2023/05/22 04:52:47;;;;;;;4.90;4.40;;;15.90;99.90;;;;;;4989720;28;20555;-53
2023/05/22 04:55:16;;;;;;;4.50;4.10;;;15.90;99.90;;;;;;4992152;28;20908;-55
2023/05/22 04:57:43;;;;;;;9.60;4.03;;;15.90;99.90;;;;;;4999122;28;20559;-53
2023/05/22 05:00:13;;;;;;;4.53;4.13;;;15.90;99.90;;;;;;4993976;28;20519;-54
2023/05/22 05:02:39;;;;;;;9.37;4.10;;;16.00;99.90;;;;;;4993811;28;20472;-53
2023/05/22 05:05:06;;;;;;;5.87;3.80;;;16.00;99.90;;;;;;4990341;28;20464;-53
2023/05/22 05:07:36;;;;;;;4.67;4.17;;;16.00;99.90;;;;;;4990778;28;20524;-53
2023/05/22 05:10:03;;;;;;;5.50;3.87;;;16.10;99.90;;;;;;4998923;28;20583;-54
2023/05/22 05:12:31;;;;;;;4.27;3.93;;;16.10;99.90;;;;;;4994721;28;20523;-53
2023/05/22 05:14:58;;;;;;;5.00;4.50;;;16.10;99.90;;;;;;4995307;28;20480;-53
2023/05/22 05:17:24;;;;;;;6.70;4.13;;;16.20;99.90;;;;;;4989844;28;20515;-54
2023/05/22 05:19:51;;;;;;;4.50;4.20;;;16.20;99.90;;;;;;4991033;28;20579;-54
2023/05/22 05:22:17;;;;;;;9.60;4.40;;;16.30;99.90;;;;;;4985436;28;20500;-54
2023/05/22 05:24:44;;;;;;;4.90;4.40;;;16.40;99.90;;;;;;4992237;28;20488;-54
2023/05/22 05:27:11;;;;;;;8.80;3.87;;;16.50;99.90;;;;;;4991270;28;21104;-54
2023/05/22 05:29:38;;;;;;;10.13;4.30;;;16.60;99.90;;;;;;4993549;28;20579;-54
2023/05/22 05:32:05;;;;;;;13.47;4.43;;;16.70;99.90;;;;;;4985051;28;20460;-53
2023/05/22 05:34:32;;;;;;;8.90;3.83;;;16.80;99.90;;;;;;4994376;28;21006;-53
2023/05/22 05:36:58;;;;;;;3.97;3.60;;;16.90;99.90;;;;;;4997363;28;20914;-53
2023/05/22 05:39:25;;;;;;;8.63;4.40;;;17.00;99.90;;;;;;4990586;28;20986;-53
2023/05/22 05:41:51;;;;;;;5.83;4.10;;;17.20;99.90;;;;;;4993398;28;20540;-54
2023/05/22 05:44:18;;;;;;;6.03;4.10;;;17.20;99.90;;;;;;4989452;28;20548;-54
2023/05/22 05:46:46;;;;;;;7.43;4.30;;;17.40;99.90;;;;;;4992006;28;20472;-53
2023/05/22 05:49:12;;;;;;;4.30;3.90;;;17.50;99.90;;;;;;4990118;28;20571;-55
2023/05/22 05:51:39;;;;;;;6.47;4.03;;;17.60;99.90;;;;;;4994583;28;20484;-53
2023/05/22 05:54:06;;;;;;;4.83;4.27;;;17.70;1.40;;;;;;4988930;28;20463;-54
2023/05/22 05:56:32;;;;;;;5.67;4.10;;;17.80;99.90;;;;;;4993751;28;20531;-54
2023/05/22 05:58:59;;;;;;;15.80;4.27;;;17.90;99.90;;;;;;4990446;28;20489;-55
2023/05/22 06:01:26;;;;;;;4.17;3.77;;;18.00;99.90;;;;;;4990756;28;20479;-53
2023/05/22 06:03:54;;;;;;;7.77;4.50;;;18.10;99.90;;;;;;4992443;28;20465;-53
2023/05/22 06:06:24;;;;;;;7.77;4.33;;;18.20;99.90;;;;;;4991826;28;20551;-52
2023/05/22 06:08:51;;;;;;;13.70;4.03;;;18.20;99.90;;;;;;4992125;28;20479;-54
2023/05/22 06:11:17;;;;;;;6.83;4.20;;;18.30;99.90;;;;;;4991404;28;20720;-55
2023/05/22 06:13:44;;;;;;;8.00;4.73;;;18.30;99.90;;;;;;4985488;28;20489;-54
2023/05/22 06:16:11;;;;;;;6.10;4.33;;;18.30;99.90;;;;;;4988593;28;20552;-53
2023/05/22 06:18:37;;;;;;;9.23;5.50;;;18.30;99.90;;;;;;4992491;28;20469;-54
2023/05/22 06:21:05;;;;;;;17.10;4.80;;;18.40;99.90;;;;;;4990585;28;20499;-54
2023/05/22 06:23:32;;;;;;;7.03;4.00;;;18.40;99.90;;;;;;4992910;28;20457;-54
2023/05/22 06:25:58;;;;;;;7.60;5.07;;;18.40;99.90;;;;;;4992589;28;20896;-54
2023/05/22 06:28:25;;;;;;;11.87;4.70;;;18.50;99.90;;;;;;4983574;28;20583;-52
2023/05/22 06:30:52;;;;;;;7.10;4.50;;;18.50;99.90;;;;;;4987342;28;20497;-55
2023/05/22 06:33:18;;;;;;;4.40;4.00;;;18.60;99.90;;;;;;4992817;28;20481;-52
2023/05/22 06:35:45;;;;;;;13.80;4.60;;;18.70;99.90;;;;;;4987377;28;20473;-53
2023/05/22 06:38:13;;;;;;;4.57;4.20;;;18.70;99.90;;;;;;4992973;28;20519;-53
2023/05/22 06:40:40;;;;;;;7.67;4.70;;;18.70;99.90;;;;;;4989468;28;20492;-53
2023/05/22 06:43:06;;;;;;;5.30;4.27;;;18.80;99.90;;;;;;4984320;28;20554;-52
2023/05/22 06:45:33;;;;;;;5.60;4.40;;;18.80;99.90;;;;;;4986111;28;20500;-54
2023/05/22 06:48:00;;;;;;;15.10;4.80;;;18.80;99.90;;;;;;4990011;28;20503;-53
2023/05/22 06:50:26;;;;;;;5.30;4.80;;;18.90;99.90;;;;;;4988211;28;20571;-53
2023/05/22 06:52:53;;;;;;;7.50;4.60;;;18.90;99.90;;;;;;4993196;28;20489;-52
2023/05/22 06:55:20;;;;;;;5.67;4.40;;;19.00;99.90;;;;;;4991773;28;20562;-53
2023/05/22 06:57:47;;;;;;;6.50;5.00;;;19.00;99.90;;;;;;4992479;28;20555;-54
2023/05/22 07:00:15;;;;;;;8.47;4.80;;;19.10;99.90;;;;;;4986470;28;20844;-54
2023/05/22 07:02:41;;;;;;;9.70;4.70;;;19.20;99.90;;;;;;4982069;28;20469;-53
2023/05/22 07:05:08;;;;;;;7.77;4.70;;;19.20;99.90;;;;;;4985081;28;20878;-55
2023/05/22 07:07:35;;;;;;;8.77;5.00;;;19.30;99.90;;;;;;4983417;28;20560;-55
2023/05/22 07:10:01;;;;;;;10.00;5.10;;;19.40;99.90;;;;;;4989382;28;20558;-54
2023/05/22 07:12:29;;;;;;;17.13;4.57;;;19.50;99.90;;;;;;4991362;28;20504;-55
2023/05/22 07:14:58;;;;;;;6.20;4.40;;;19.60;99.90;;;;;;4990792;28;20958;-54
2023/05/22 07:17:24;;;;;;;5.13;4.67;;;19.60;99.90;;;;;;4991027;28;20481;-54
2023/05/22 07:19:51;;;;;;;5.87;4.30;;;19.70;99.90;;;;;;4989146;28;20471;-54
2023/05/22 07:22:18;;;;;;;12.80;5.10;;;19.80;99.90;;;;;;4989763;28;20492;-54
2023/05/22 07:24:46;;;;;;;8.77;4.23;;;19.90;99.90;;;;;;4991162;28;20496;-54
2023/05/22 07:27:12;;;;;;;7.60;4.57;;;20.00;99.90;;;;;;4991467;28;20511;-55
2023/05/22 07:29:40;;;;;;;9.70;4.40;;;20.10;99.90;;;;;;4985966;28;20576;-55
2023/05/22 07:32:08;;;;;;;19.93;5.60;;;20.20;99.90;;;;;;4987851;28;20990;-54
2023/05/22 07:34:35;;;;;;;16.67;4.70;;;20.30;99.90;;;;;;4993692;28;20464;-56
2023/05/22 07:37:07;;;;;;;5.57;4.40;;;20.40;99.90;;;;;;4990076;28;20512;-54
2023/05/22 07:39:34;;;;;;;5.87;4.77;;;20.40;99.90;;;;;;4990769;28;20468;-55
2023/05/22 07:42:01;;;;;;;10.77;4.53;;;20.40;99.90;;;;;;4991291;28;20504;-55
2023/05/22 07:44:28;;;;;;;6.53;4.70;;;20.40;99.90;;;;;;4987586;28;20939;-55
2023/05/22 07:46:56;;;;;;;8.53;5.63;;;20.50;99.90;;;;;;4988418;28;20559;-54
2023/05/22 07:49:23;;;;;;;18.47;5.10;;;20.60;99.90;;;;;;4991284;28;20492;-55
2023/05/22 07:51:49;;;;;;;11.73;4.70;;;20.70;99.90;;;;;;4988490;28;20548;-55
2023/05/22 07:54:17;;;;;;;7.00;4.60;;;20.80;99.90;;;;;;4990256;28;20599;-55
2023/05/22 07:56:44;;;;;;;6.87;5.07;;;20.90;99.90;;;;;;4984304;28;21008;-55
2023/05/22 07:59:11;;;;;;;10.70;4.63;;;21.20;99.90;;;;;;4985507;28;20456;-55
2023/05/22 08:01:38;;;;;;;16.63;5.10;;;21.40;99.90;;;;;;4979468;28;20468;-55
2023/05/22 08:04:06;;;;;;;5.97;5.37;;;21.50;99.90;;;;;;4977961;28;20544;-54
2023/05/22 08:06:34;;;;;;;4.57;4.13;;;21.60;99.90;;;;;;4980477;28;20567;-55
2023/05/22 08:09:03;;;;;;;14.37;5.20;;;21.70;99.90;;;;;;4982854;28;20456;-54
2023/05/22 08:11:29;;;;;;;9.00;5.00;;;21.70;99.90;;;;;;4981656;28;20484;-54
2023/05/22 08:13:56;;;;;;;6.43;4.70;;;21.70;99.90;;;;;;4976416;28;20551;-53
2023/05/22 08:16:22;;;;;;;8.33;4.77;;;21.60;99.90;;;;;;4983662;28;20555;-54
2023/05/22 08:18:49;;;;;;;9.87;4.90;;;21.70;99.90;;;;;;4990808;28;20477;-55
2023/05/22 08:21:18;;;;;;;8.80;5.33;;;21.80;99.90;;;;;;4991630;28;20499;-54
2023/05/22 08:23:44;;;;;;;7.90;4.43;;;21.90;99.90;;;;;;4986716;28;20561;-56
2023/05/22 08:26:11;;;;;;;6.80;4.77;;;22.00;99.90;;;;;;4984915;28;20924;-55
2023/05/22 08:28:40;;;;;;;12.27;4.93;;;22.10;99.90;;;;;;4991919;28;20500;-55
2023/05/22 08:31:07;;;;;;;14.40;3.87;;;22.30;99.90;;;;;;4976213;28;20516;-54
2023/05/22 08:33:33;;;;;;;8.73;4.20;;;22.40;99.90;;;;;;4978608;28;20497;-56
2023/05/22 08:36:00;;;;;;;8.57;4.60;;;22.40;99.90;;;;;;4988000;28;20499;-54
2023/05/22 08:38:28;;;;;;;12.73;4.97;;;22.50;99.90;;;;;;4985482;28;20508;-54
2023/05/22 08:40:55;;;;;;;5.63;4.97;;;22.60;99.90;;;;;;4977825;28;20548;-54
2023/05/22 08:43:22;;;;;;;12.93;4.30;;;22.60;99.90;;;;;;4979467;28;20457;-53
2023/05/22 08:46:03;;;;;;;11.90;3.83;;;22.60;99.90;;;;;;4977096;28;20986;-54
2023/05/22 08:48:31;;;;;;;12.60;3.97;;;22.60;99.90;;;;;;4980471;28;20489;-53
2023/05/22 08:51:01;;;;;;;4.77;3.97;;;22.80;99.90;;;;;;4980840;28;20631;-55
2023/05/22 08:53:32;;;;;;;5.70;3.50;;;22.80;99.90;;;;;;4980102;28;20905;-54
2023/05/22 08:55:59;;;;;;;6.13;4.00;;;23.10;99.90;;;;;;4987191;28;20579;-54
2023/05/22 08:58:27;;;;;;;7.93;3.80;;;23.20;99.90;;;;;;4981734;28;20594;-55
2023/05/22 09:00:54;;;;;;;7.70;3.83;;;23.40;99.90;;;;;;4988015;28;20539;-54
2023/05/22 09:03:21;;;;;;;9.97;4.77;;;23.30;99.90;;;;;;4980978;28;20493;-54
2023/05/22 09:05:49;;;;;;;5.80;4.20;;;23.30;99.90;;;;;;4984086;28;20460;-55
2023/05/22 09:08:17;;;;;;;6.67;3.60;;;23.20;99.90;;;;;;4984620;28;21125;-54
2023/05/22 09:10:45;;;;;;;7.00;3.50;;;23.40;99.90;;;;;;4990606;28;20507;-54
2023/05/22 09:13:24;;;;;;;9.57;4.13;;;23.50;99.90;;;;;;4990067;28;20905;-55
2023/05/22 09:15:50;;;;;;;10.70;4.00;;;23.50;99.90;;;;;;4985290;28;20531;-54
2023/05/22 09:18:17;;;;;;;10.73;3.50;;;23.50;99.90;;;;;;4990917;28;21199;-53
2023/05/22 09:20:44;;;;;;;9.60;3.30;;;23.50;99.90;;;;;;4983031;28;20551;-56
2023/05/22 09:23:12;;;;;;;6.33;2.90;;;23.40;99.90;;;;;;4984679;28;20536;-55
2023/05/22 09:25:39;;;;;;;5.27;3.70;;;23.60;99.90;;;;;;4991968;28;20955;-56
2023/05/22 09:28:07;;;;;;;6.90;3.10;;;23.50;99.90;;;;;;4987283;28;20500;-55
2023/05/22 09:30:34;;;;;;;9.90;3.17;;;23.50;99.90;;;;;;4987894;28;20563;-54
2023/05/22 09:33:01;;;;;;;19.47;3.10;;;23.80;99.90;;;;;;4988721;28;20955;-53
2023/05/22 09:35:28;;;;;;;9.10;4.00;;;23.80;99.90;;;;;;4982912;28;20599;-54
2023/05/22 09:37:56;;;;;;;15.97;4.10;;;24.10;99.90;;;;;;4983126;28;20582;-55
2023/05/22 09:40:23;;;;;;;11.87;3.43;;;24.00;99.90;;;;;;4982967;28;20462;-54
2023/05/22 09:42:49;;;;;;;3.00;2.80;;;24.40;99.90;;;;;;4983580;28;20647;-54
2023/05/22 09:45:21;;;;;;;8.87;4.93;;;24.40;99.90;;;;;;4989637;28;20457;-54
2023/05/22 09:47:49;;;;;;;4.90;2.90;;;24.50;99.90;;;;;;4987713;28;20584;-53
2023/05/22 09:50:16;;;;;;;6.53;3.60;;;24.80;99.90;;;;;;4983944;28;20603;-53
2023/05/22 09:52:45;;;;;;;5.93;3.10;;;25.10;99.90;;;;;;4981881;28;20548;-55
2023/05/22 09:55:13;;;;;;;16.63;3.13;;;24.90;99.90;;;;;;4986857;28;20465;-55
2023/05/22 09:57:42;;;;;;;8.43;3.60;;;24.30;99.90;;;;;;4984923;28;20587;-54
2023/05/22 10:00:13;;;;;;;8.20;3.57;;;24.90;99.90;;;;;;4985686;28;20556;-53
2023/05/22 10:02:44;;;;;;;11.73;2.93;;;25.30;99.90;;;;;;4987612;28;20465;-54
2023/05/22 10:05:14;;;;;;;3.27;2.70;;;25.70;99.90;;;;;;4995328;28;20985;-53
2023/05/22 10:07:48;;;;;;;9.63;2.93;;;25.60;99.90;;;;;;4990777;28;20520;-54
2023/05/22 10:10:17;;;;;;;10.40;3.70;;;25.60;99.90;;;;;;4985373;28;20477;-54
2023/05/22 10:12:51;;;;;;;4.33;3.43;;;25.70;99.90;;;;;;4985672;28;20491;-55
2023/05/22 10:15:18;;;;;;;5.63;3.17;;;25.60;99.90;;;;;;4982828;28;20461;-54
2023/05/22 10:17:47;;;;;;;3.80;3.40;;;26.00;99.90;;;;;;4980246;28;20524;-54
2023/05/22 10:20:15;;;;;;;9.10;3.27;;;25.80;99.90;;;;;;4983479;28;20488;-53
2023/05/22 10:22:43;;;;;;;9.30;3.60;;;26.10;99.90;;;;;;4982249;28;20474;-55
2023/05/22 10:25:10;;;;;;;14.70;3.30;;;25.80;99.90;;;;;;4988228;28;20489;-53
2023/05/22 10:27:37;;;;;;;9.27;3.57;;;26.50;99.90;;;;;;4988442;28;20492;-51
2023/05/22 10:30:18;;;;;;;4.80;3.53;;;26.40;99.90;;;;;;4985894;28;20552;-51
2023/05/22 10:32:53;;;;;;;3.60;3.30;;;26.30;99.90;;;;;;4981505;28;20551;-51
2023/05/22 10:35:24;;;;;;;3.97;2.70;;;26.20;99.90;;;;;;4980812;28;20461;-51
2023/05/22 10:37:54;;;;;;;3.60;3.30;;;27.00;99.90;;;;;;4992608;28;20509;-51
2023/05/22 10:40:27;;;;;;;3.83;2.70;;;26.20;99.90;;;;;;4992537;28;20527;-51
2023/05/22 10:42:58;;;;;;;3.83;2.80;;;26.60;99.90;;;;;;4993325;28;20481;-52
2023/05/22 10:45:25;;;;;;;4.37;3.00;;;26.80;99.90;;;;;;4988564;28;20604;-51
2023/05/22 10:48:03;;;;;;;6.30;2.93;;;27.60;99.90;;;;;;4987799;28;20519;-51
2023/05/22 10:50:30;;;;;;;31.50;3.07;;;26.50;99.90;;;;;;4983880;28;20465;-52
2023/05/22 10:53:18;;;;;;;5.53;2.90;;;26.20;99.90;;;;;;4989531;28;20891;-51
2023/05/22 10:55:48;;;;;;;5.27;3.20;;;26.40;99.90;;;;;;5000812;28;20959;-51
2023/05/22 10:58:15;;;;;;;12.90;3.93;;;27.00;99.90;;;;;;4993183;28;20484;-52
2023/05/22 11:00:42;;;;;;;3.67;3.20;;;26.80;99.90;;;;;;4992596;28;20479;-52
2023/05/22 11:03:10;;;;;;;8.53;2.80;;;27.20;99.90;;;;;;4993038;28;20437;-52
2023/05/22 11:05:37;;;;;;;5.90;3.23;;;27.10;99.90;;;;;;4989815;28;20997;-52
2023/05/22 11:08:46;;;;;;;5.00;3.20;;;27.10;99.90;;;;;;4992887;28;20492;-52
2023/05/22 11:11:13;;;;;;;9.40;3.20;;;27.00;99.90;;;;;;4989305;28;20580;-51
2023/05/22 11:13:42;;;;;;;13.50;3.53;;;26.60;99.90;;;;;;4989600;28;20501;-52
2023/05/22 11:16:10;;;;;;;4.63;3.20;;;26.70;99.90;;;;;;4992827;28;20452;-51
2023/05/22 11:18:38;;;;;;;9.10;3.27;;;27.20;99.90;;;;;;4993005;28;20448;-51
2023/05/22 11:21:06;;;;;;;7.27;2.80;;;27.00;99.90;;;;;;4988870;28;20798;-52
2023/05/22 11:23:37;;;;;;;11.93;2.70;;;26.50;99.90;;;;;;4992468;28;20457;-52
2023/05/22 11:26:23;;;;;;;3.23;2.90;;;26.60;99.90;;;;;;4992365;28;20457;-51
2023/05/22 11:28:52;;;;;;;6.37;2.90;;;26.90;99.90;;;;;;4991741;28;20982;-52
2023/05/22 11:31:19;;;;;;;3.10;2.90;;;26.80;99.90;;;;;;4987126;28;20497;-52
2023/05/22 11:33:47;;;;;;;8.30;2.47;;;26.70;99.90;;;;;;4994921;28;20463;-58
2023/05/22 11:36:15;;;;;;;3.43;2.80;;;27.00;99.90;;;;;;4991890;28;20468;-52
2023/05/22 11:38:42;;;;;;;2.70;2.60;;;27.00;99.90;;;;;;4988717;28;20587;-52
2023/05/22 11:41:10;;;;;;;2.60;2.40;;;26.80;99.90;;;;;;4991358;28;20453;-52
2023/05/22 11:43:36;;;;;;;3.57;2.60;;;26.80;99.90;;;;;;4987768;28;20548;-52
2023/05/22 11:46:06;;;;;;;4.67;3.13;;;27.10;99.90;;;;;;4988942;28;20489;-52
2023/05/22 11:48:33;;;;;;;19.37;3.17;;;27.50;99.90;;;;;;4989902;28;20814;-52
2023/05/22 11:51:01;;;;;;;13.07;3.10;;;27.80;99.90;;;;;;4983216;28;20995;-52
2023/05/22 11:53:30;;;;;;;7.53;2.70;;;27.80;99.90;;;;;;4988753;28;20499;-52
2023/05/22 11:56:01;;;;;;;10.20;5.40;;;27.60;99.90;;;;;;4990632;28;21066;-52
2023/05/22 11:58:28;;;;;;;4.93;2.60;;;27.90;99.90;;;;;;4991122;28;20521;-51
2023/05/22 12:00:58;;;;;;;2.63;2.53;;;27.80;99.90;;;;;;4990050;28;20456;-52
2023/05/22 12:03:24;;;;;;;2.67;2.47;;;27.40;99.90;;;;;;4988581;28;20935;-51
2023/05/22 12:05:51;;;;;;;5.70;2.60;;;27.20;99.90;;;;;;4998338;28;20456;-53
2023/05/22 12:08:19;;;;;;;5.60;3.03;;;27.80;99.90;;;;;;4991579;28;21273;-51
2023/05/22 12:10:47;;;;;;;8.37;2.77;;;27.70;99.90;;;;;;4990974;28;20496;-51
2023/05/22 12:13:14;;;;;;;10.77;2.70;;;27.20;99.90;;;;;;4992044;28;20468;-52
2023/05/22 12:15:40;;;;;;;9.13;2.67;;;27.10;99.90;;;;;;4991146;28;20465;-52
2023/05/22 12:18:08;;;;;;;13.13;3.30;;;27.30;99.90;;;;;;4990859;28;20523;-52
2023/05/22 12:20:35;;;;;;;5.30;2.20;;;27.30;99.90;;;;;;4988758;28;20506;-52
2023/05/22 12:23:02;;;;;;;18.40;3.07;;;27.30;99.90;;;;;;4990011;28;20950;-52
2023/05/22 12:25:36;;;;;;;4.30;2.73;;;27.40;99.90;;;;;;4990288;28;20508;-51
2023/05/22 12:28:03;;;;;;;2.60;2.40;;;27.20;99.90;;;;;;4991449;28;20491;-52
2023/05/22 12:30:40;;;;;;;11.50;2.73;;;27.10;99.90;;;;;;4990647;28;20489;-52
2023/05/22 12:33:12;;;;;;;5.07;2.87;;;26.80;99.90;;;;;;4985451;28;20631;-52
2023/05/22 12:35:38;;;;;;;6.40;3.23;;;26.60;99.90;;;;;;4997065;28;20865;-52
2023/05/22 12:38:07;;;;;;;3.93;3.13;;;27.10;99.90;;;;;;4990175;28;21242;-51
2023/05/22 12:40:35;;;;;;;4.03;2.60;;;27.50;99.90;;;;;;4992708;28;20464;-52
2023/05/22 12:43:02;;;;;;;8.13;2.77;;;27.70;99.90;;;;;;4998096;28;20511;-52
2023/05/22 12:45:28;;;;;;;3.90;2.27;;;27.80;99.90;;;;;;4994938;28;20469;-52
2023/05/22 12:47:55;;;;;;;2.00;1.90;;;27.30;99.90;;;;;;4995056;28;20572;-51
2023/05/22 12:50:21;;;;;;;2.97;2.67;;;27.40;99.90;;;;;;4992356;28;20515;-52